createdAt,value
2018-06-21T00:00:38.684Z,0.00
2018-06-21T00:01:38.667Z,0.00
2018-06-21T00:02:38.654Z,0.00
2018-06-21T00:03:38.662Z,0.00
2018-06-21T00:04:38.629Z,0.00
2018-06-21T00:05:38.935Z,0.00
2018-06-21T00:06:38.614Z,0.00
2018-06-21T00:07:38.594Z,0.00
2018-06-21T00:08:38.577Z,0.00
2018-06-21T00:09:38.565Z,0.00
2018-06-21T00:10:38.558Z,0.00
2018-06-21T00:11:38.552Z,0.00
2018-06-21T00:12:38.840Z,0.00
2018-06-21T00:13:38.524Z,0.00
2018-06-21T00:14:38.508Z,0.00
2018-06-21T00:15:38.490Z,0.00
2018-06-21T00:16:38.481Z,0.00
2018-06-21T00:17:38.468Z,0.00
2018-06-21T00:18:38.547Z,0.00
2018-06-21T00:19:38.763Z,0.00
2018-06-21T00:20:38.436Z,0.00
2018-06-21T00:21:38.429Z,0.00
2018-06-21T00:22:38.403Z,0.00
2018-06-21T00:23:38.393Z,0.00
2018-06-21T00:24:38.374Z,0.00
2018-06-21T00:25:38.359Z,0.00
2018-06-21T00:26:38.651Z,0.00
2018-06-21T00:27:38.336Z,0.00
2018-06-21T00:28:38.324Z,0.00
2018-06-21T00:29:38.313Z,0.00
2018-06-21T00:30:38.303Z,0.00
2018-06-21T00:31:38.287Z,0.00
2018-06-21T00:32:38.275Z,0.00
2018-06-21T00:33:38.562Z,0.00
2018-06-21T00:34:38.248Z,0.00
2018-06-21T00:35:38.238Z,0.00
2018-06-21T00:36:38.218Z,0.00
2018-06-21T00:37:38.212Z,0.00
2018-06-21T00:38:38.199Z,0.00
2018-06-21T00:39:38.183Z,0.00
2018-06-21T00:40:38.723Z,0.00
2018-06-21T00:41:38.155Z,0.00
2018-06-21T00:42:38.144Z,0.00
2018-06-21T00:43:38.345Z,0.00
2018-06-21T00:44:38.131Z,0.00
2018-06-21T00:45:38.101Z,0.00
2018-06-21T00:46:38.090Z,0.00
2018-06-21T00:47:38.374Z,0.00
2018-06-21T00:48:38.063Z,0.00
2018-06-21T00:49:38.049Z,0.00
2018-06-21T00:50:38.046Z,0.00
2018-06-21T00:51:38.024Z,0.00
2018-06-21T00:52:38.005Z,0.00
2018-06-21T00:53:38.298Z,0.00
2018-06-21T00:54:37.983Z,0.00
2018-06-21T00:55:37.982Z,0.00
2018-06-21T00:56:37.956Z,0.00
2018-06-21T00:57:37.952Z,0.00
2018-06-21T00:58:37.935Z,0.00
2018-06-21T00:59:38.239Z,0.00
2018-06-21T01:00:37.903Z,0.00
2018-06-21T01:01:37.992Z,0.00
2018-06-21T01:02:37.937Z,0.00
2018-06-21T01:03:37.864Z,0.00
2018-06-21T01:04:37.848Z,0.00
2018-06-21T01:05:38.140Z,0.00
2018-06-21T01:06:37.836Z,0.00
2018-06-21T01:07:37.829Z,0.00
2018-06-21T01:09:37.814Z,0.00
2018-06-21T01:10:37.779Z,0.00
2018-06-21T01:11:38.061Z,0.00
2018-06-21T01:12:37.741Z,0.00
2018-06-21T01:13:37.730Z,0.00
2018-06-21T01:14:37.717Z,0.00
2018-06-21T01:15:37.758Z,0.00
2018-06-21T01:16:37.685Z,0.00
2018-06-21T01:17:37.974Z,0.00
2018-06-21T01:18:37.689Z,0.00
2018-06-21T01:19:37.644Z,0.00
2018-06-21T01:20:37.638Z,0.00
2018-06-21T01:21:37.921Z,0.00
2018-06-21T01:22:37.604Z,0.00
2018-06-21T01:23:37.911Z,0.00
2018-06-21T01:24:37.577Z,0.00
2018-06-21T01:25:37.568Z,0.00
2018-06-21T01:26:37.551Z,0.00
2018-06-21T01:27:37.593Z,0.00
2018-06-21T01:28:37.524Z,0.00
2018-06-21T01:29:37.820Z,0.00
2018-06-21T01:30:37.504Z,0.00
2018-06-21T01:31:37.489Z,0.00
2018-06-21T01:32:37.469Z,0.00
2018-06-21T01:34:37.490Z,0.00
2018-06-21T01:35:37.428Z,0.00
2018-06-21T01:36:37.712Z,0.00
2018-06-21T01:37:37.409Z,0.00
2018-06-21T01:38:37.389Z,0.00
2018-06-21T01:39:37.371Z,0.00
2018-06-21T01:40:37.360Z,0.00
2018-06-21T01:41:37.348Z,0.00
2018-06-21T01:42:37.338Z,0.00
2018-06-21T01:43:37.617Z,0.00
2018-06-21T01:44:37.305Z,0.00
2018-06-21T01:45:37.294Z,0.00
2018-06-21T01:46:37.275Z,0.00
2018-06-21T01:47:37.264Z,0.00
2018-06-21T01:48:37.264Z,0.00
2018-06-21T01:49:37.236Z,0.00
2018-06-21T01:50:37.524Z,0.00
2018-06-21T01:51:37.215Z,0.00
2018-06-21T01:52:37.192Z,0.00
2018-06-21T01:53:37.180Z,0.00
2018-06-21T01:54:37.172Z,0.00
2018-06-21T01:55:37.154Z,0.00
2018-06-21T01:56:37.136Z,0.00
2018-06-21T01:57:37.440Z,0.00
2018-06-21T01:58:37.110Z,0.00
2018-06-21T01:59:37.099Z,0.00
2018-06-21T02:00:37.081Z,0.00
2018-06-21T02:01:37.067Z,0.00
2018-06-21T02:02:37.055Z,0.00
2018-06-21T02:03:37.049Z,0.00
2018-06-21T02:04:37.324Z,0.00
2018-06-21T02:05:37.020Z,0.00
2018-06-21T02:06:37.010Z,0.00
2018-06-21T02:07:36.986Z,0.00
2018-06-21T02:08:36.971Z,0.00
2018-06-21T02:09:36.960Z,0.00
2018-06-21T02:10:36.961Z,0.00
2018-06-21T02:11:37.236Z,0.00
2018-06-21T02:12:36.943Z,0.00
2018-06-21T02:13:36.903Z,0.00
2018-06-21T02:14:36.895Z,0.00
2018-06-21T02:15:36.898Z,0.00
2018-06-21T02:16:36.858Z,0.00
2018-06-21T02:17:37.189Z,0.00
2018-06-21T02:18:37.185Z,0.00
2018-06-21T02:19:36.826Z,0.00
2018-06-21T02:20:36.805Z,0.00
2018-06-21T02:21:36.823Z,0.00
2018-06-21T02:22:36.774Z,0.00
2018-06-21T02:23:36.762Z,0.00
2018-06-21T02:24:37.056Z,0.00
2018-06-21T02:25:36.750Z,0.00
2018-06-21T02:26:36.787Z,0.00
2018-06-21T02:27:36.708Z,0.00
2018-06-21T02:28:36.698Z,0.00
2018-06-21T02:29:36.685Z,0.00
2018-06-21T02:30:36.959Z,0.00
2018-06-21T02:31:36.645Z,0.00
2018-06-21T02:32:36.631Z,0.00
2018-06-21T02:33:36.698Z,0.00
2018-06-21T02:34:36.766Z,0.00
2018-06-21T02:35:37.171Z,0.00
2018-06-21T02:36:36.877Z,0.00
2018-06-21T02:37:36.579Z,0.00
2018-06-21T02:38:36.554Z,0.00
2018-06-21T02:39:36.546Z,0.00
2018-06-21T02:40:36.526Z,0.00
2018-06-21T02:41:36.501Z,0.00
2018-06-21T02:42:36.789Z,0.00
2018-06-21T02:44:36.462Z,0.00
2018-06-21T02:45:36.463Z,0.00
2018-06-21T02:46:36.440Z,0.00
2018-06-21T02:47:36.421Z,5.63
2018-06-21T02:48:36.702Z,5.63
2018-06-21T02:49:36.397Z,5.63
2018-06-21T02:50:36.376Z,5.63
2018-06-21T02:51:36.365Z,5.63
2018-06-21T02:53:36.337Z,5.63
2018-06-21T02:54:36.321Z,5.63
2018-06-21T02:55:36.611Z,5.63
2018-06-21T02:56:36.288Z,5.63
2018-06-21T02:57:36.276Z,5.63
2018-06-21T02:59:36.251Z,11.25
2018-06-21T03:00:36.236Z,11.25
2018-06-21T03:01:36.522Z,11.25
2018-06-21T03:02:36.203Z,11.25
2018-06-21T03:03:36.201Z,11.25
2018-06-21T03:04:36.177Z,11.25
2018-06-21T03:05:36.164Z,11.25
2018-06-21T03:07:36.466Z,16.88
2018-06-21T03:08:36.123Z,16.88
2018-06-21T03:09:36.107Z,16.88
2018-06-21T03:10:36.102Z,16.88
2018-06-21T03:11:36.077Z,16.88
2018-06-21T03:12:36.061Z,22.50
2018-06-21T03:13:36.152Z,22.50
2018-06-21T03:14:36.343Z,22.50
2018-06-21T03:15:36.022Z,22.50
2018-06-21T03:16:36.011Z,22.50
2018-06-21T03:18:35.979Z,22.50
2018-06-21T03:19:35.964Z,28.13
2018-06-21T03:20:35.954Z,28.13
2018-06-21T03:21:36.246Z,28.13
2018-06-21T03:22:35.921Z,28.13
2018-06-21T03:23:35.907Z,28.13
2018-06-21T03:24:35.895Z,28.13
2018-06-21T03:25:35.881Z,33.75
2018-06-21T03:26:35.873Z,33.75
2018-06-21T03:28:36.142Z,33.75
2018-06-21T03:29:35.828Z,33.75
2018-06-21T03:30:35.811Z,39.38
2018-06-21T03:31:35.797Z,39.38
2018-06-21T03:32:35.782Z,39.38
2018-06-21T03:33:35.769Z,39.38
2018-06-21T03:34:35.791Z,39.38
2018-06-21T03:35:36.045Z,45.00
2018-06-21T03:36:35.727Z,45.00
2018-06-21T03:37:35.714Z,45.00
2018-06-21T03:38:35.702Z,45.00
2018-06-21T03:39:35.733Z,50.63
2018-06-21T03:40:35.668Z,50.63
2018-06-21T03:41:35.664Z,56.25
2018-06-21T03:42:35.942Z,56.25
2018-06-21T03:43:35.629Z,56.25
2018-06-21T03:44:35.627Z,61.88
2018-06-21T03:46:35.592Z,61.88
2018-06-21T03:47:35.586Z,61.88
2018-06-21T03:48:35.578Z,61.88
2018-06-21T03:50:35.604Z,61.88
2018-06-21T03:51:35.523Z,61.88
2018-06-21T03:52:35.501Z,61.88
2018-06-21T03:53:35.494Z,61.88
2018-06-21T03:54:35.481Z,61.88
2018-06-21T03:55:35.546Z,61.88
2018-06-21T03:56:35.451Z,61.88
2018-06-21T03:58:35.418Z,67.50
2018-06-21T03:59:35.407Z,61.88
2018-06-21T04:00:35.399Z,67.50
2018-06-21T04:01:35.680Z,67.50
2018-06-21T04:02:35.363Z,73.13
2018-06-21T04:03:35.352Z,73.13
2018-06-21T04:04:36.271Z,73.13
2018-06-21T04:05:35.325Z,73.13
2018-06-21T04:06:35.308Z,73.13
2018-06-21T04:07:35.300Z,73.13
2018-06-21T04:08:35.282Z,73.13
2018-06-21T04:09:35.277Z,78.75
2018-06-21T04:10:35.252Z,78.75
2018-06-21T04:11:35.255Z,78.75
2018-06-21T04:12:35.235Z,84.38
2018-06-21T04:13:35.211Z,84.38
2018-06-21T04:14:35.199Z,90.00
2018-06-21T04:15:35.185Z,95.63
2018-06-21T04:16:35.170Z,101.25
2018-06-21T04:17:35.238Z,112.50
2018-06-21T04:19:35.438Z,118.13
2018-06-21T04:20:35.120Z,118.13
2018-06-21T04:21:35.118Z,123.75
2018-06-21T04:22:35.089Z,123.75
2018-06-21T04:23:35.079Z,123.75
2018-06-21T04:24:35.062Z,123.75
2018-06-21T04:25:35.050Z,129.38
2018-06-21T04:26:35.062Z,123.75
2018-06-21T04:27:35.025Z,118.13
2018-06-21T04:28:35.025Z,118.13
2018-06-21T04:29:35.003Z,112.50
2018-06-21T04:30:34.987Z,112.50
2018-06-21T04:31:35.273Z,106.88
2018-06-21T04:32:34.957Z,101.25
2018-06-21T04:33:34.944Z,106.88
2018-06-21T04:34:34.940Z,106.88
2018-06-21T04:35:34.926Z,101.25
2018-06-21T04:36:34.955Z,112.50
2018-06-21T04:37:34.950Z,106.88
2018-06-21T04:38:35.183Z,112.50
2018-06-21T04:39:34.872Z,112.50
2018-06-21T04:40:34.854Z,106.88
2018-06-21T04:41:34.865Z,106.88
2018-06-21T04:42:34.831Z,106.88
2018-06-21T04:43:34.965Z,118.13
2018-06-21T04:44:34.804Z,112.50
2018-06-21T04:45:35.092Z,135.00
2018-06-21T04:46:34.806Z,151.88
2018-06-21T04:47:34.762Z,157.50
2018-06-21T04:48:34.750Z,157.50
2018-06-21T04:49:34.736Z,157.50
2018-06-21T04:50:34.721Z,168.75
2018-06-21T04:51:34.718Z,180.00
2018-06-21T04:52:35.009Z,180.00
2018-06-21T04:53:34.690Z,185.63
2018-06-21T04:54:34.672Z,196.88
2018-06-21T04:55:34.666Z,196.88
2018-06-21T04:56:35.847Z,196.88
2018-06-21T04:57:34.634Z,196.88
2018-06-21T04:58:34.923Z,208.13
2018-06-21T04:59:34.614Z,202.50
2018-06-21T05:00:34.611Z,180.00
2018-06-21T05:01:34.584Z,191.25
2018-06-21T05:02:34.570Z,196.88
2018-06-21T05:03:34.562Z,185.63
2018-06-21T05:04:34.845Z,180.00
2018-06-21T05:05:34.539Z,174.38
2018-06-21T05:06:34.521Z,174.38
2018-06-21T05:07:34.560Z,180.00
2018-06-21T05:08:34.497Z,185.63
2018-06-21T05:09:34.484Z,174.38
2018-06-21T05:10:34.484Z,174.38
2018-06-21T05:11:34.790Z,163.13
2018-06-21T05:12:34.446Z,174.38
2018-06-21T05:13:34.438Z,185.63
2018-06-21T05:14:34.420Z,191.25
2018-06-21T05:15:34.425Z,191.25
2018-06-21T05:16:34.403Z,213.75
2018-06-21T05:17:34.383Z,236.25
2018-06-21T05:18:34.675Z,264.38
2018-06-21T05:19:34.366Z,275.63
2018-06-21T05:20:34.352Z,264.38
2018-06-21T05:21:34.339Z,264.38
2018-06-21T05:22:34.344Z,264.38
2018-06-21T05:23:34.596Z,275.63
2018-06-21T05:24:34.300Z,275.63
2018-06-21T05:25:34.741Z,270.00
2018-06-21T05:26:34.275Z,270.00
2018-06-21T05:27:35.849Z,275.63
2018-06-21T05:28:34.396Z,264.38
2018-06-21T05:29:34.331Z,264.38
2018-06-21T05:30:34.417Z,258.75
2018-06-21T05:31:34.629Z,264.38
2018-06-21T05:32:34.281Z,270.00
2018-06-21T05:33:34.200Z,275.63
2018-06-21T05:35:34.176Z,298.13
2018-06-21T05:36:34.170Z,286.88
2018-06-21T05:37:34.282Z,298.13
2018-06-21T05:38:34.137Z,303.75
2018-06-21T05:39:34.132Z,309.38
2018-06-21T05:41:34.107Z,348.75
2018-06-21T05:42:34.090Z,343.13
2018-06-21T05:43:34.386Z,360.00
2018-06-21T05:44:34.067Z,337.50
2018-06-21T05:45:34.055Z,343.13
2018-06-21T05:46:34.044Z,303.75
2018-06-21T05:47:34.039Z,315.00
2018-06-21T05:48:34.033Z,320.63
2018-06-21T05:49:34.315Z,331.88
2018-06-21T05:50:34.007Z,315.00
2018-06-21T05:51:34.008Z,298.13
2018-06-21T05:52:33.977Z,320.63
2018-06-21T05:53:33.979Z,253.13
2018-06-21T05:54:33.961Z,298.13
2018-06-21T05:55:34.245Z,348.75
2018-06-21T05:56:33.938Z,320.63
2018-06-21T05:57:33.922Z,270.00
2018-06-21T05:58:33.909Z,281.25
2018-06-21T05:59:33.973Z,219.38
2018-06-21T06:00:33.933Z,157.50
2018-06-21T06:01:34.179Z,168.75
2018-06-21T06:02:33.871Z,241.88
2018-06-21T06:04:33.865Z,286.88
2018-06-21T06:05:33.837Z,191.25
2018-06-21T06:06:33.821Z,219.38
2018-06-21T06:07:34.118Z,343.13
2018-06-21T06:08:33.828Z,253.13
2018-06-21T06:09:33.799Z,213.75
2018-06-21T06:11:33.774Z,275.63
2018-06-21T06:12:33.777Z,331.88
2018-06-21T06:13:33.757Z,298.13
2018-06-21T06:14:33.750Z,320.63
2018-06-21T06:15:33.730Z,343.13
2018-06-21T06:16:33.710Z,360.00
2018-06-21T06:17:33.704Z,388.13
2018-06-21T06:18:33.695Z,376.88
2018-06-21T06:19:33.682Z,343.13
2018-06-21T06:20:33.673Z,303.75
2018-06-21T06:21:33.658Z,337.50
2018-06-21T06:22:33.651Z,292.50
2018-06-21T06:23:33.643Z,315.00
2018-06-21T06:24:33.624Z,281.25
2018-06-21T06:25:33.666Z,309.38
2018-06-21T06:26:33.615Z,219.38
2018-06-21T06:27:33.601Z,140.63
2018-06-21T06:28:33.657Z,67.50
2018-06-21T06:29:33.571Z,50.63
2018-06-21T06:30:33.570Z,39.38
2018-06-21T06:31:33.919Z,28.13
2018-06-21T06:32:33.541Z,22.50
2018-06-21T06:33:33.578Z,22.50
2018-06-21T06:34:33.524Z,22.50
2018-06-21T06:35:33.511Z,28.13
2018-06-21T06:36:33.497Z,45.00
2018-06-21T06:37:33.490Z,45.00
2018-06-21T06:38:33.771Z,33.75
2018-06-21T06:39:33.458Z,28.13
2018-06-21T06:40:33.460Z,33.75
2018-06-21T06:41:33.441Z,50.63
2018-06-21T06:42:33.425Z,90.00
2018-06-21T06:43:33.414Z,101.25
2018-06-21T06:44:33.412Z,90.00
2018-06-21T06:45:33.695Z,90.00
2018-06-21T06:46:33.392Z,73.13
2018-06-21T06:47:33.369Z,73.13
2018-06-21T06:48:33.361Z,73.13
2018-06-21T06:49:33.342Z,61.88
2018-06-21T06:50:33.332Z,67.50
2018-06-21T06:51:33.619Z,67.50
2018-06-21T06:53:33.295Z,28.13
2018-06-21T06:54:33.292Z,39.38
2018-06-21T06:57:33.587Z,73.13
2018-06-21T06:58:33.233Z,61.88
2018-06-21T06:59:33.215Z,50.63
2018-06-21T07:00:33.201Z,50.63
2018-06-21T07:01:33.194Z,67.50
2018-06-21T07:02:33.175Z,95.63
2018-06-21T07:04:33.450Z,78.75
2018-06-21T07:05:33.136Z,101.25
2018-06-21T07:06:33.130Z,101.25
2018-06-21T07:07:33.112Z,101.25
2018-06-21T07:08:33.112Z,123.75
2018-06-21T07:09:33.138Z,118.13
2018-06-21T07:10:33.369Z,118.13
2018-06-21T07:11:33.067Z,112.50
2018-06-21T07:12:33.044Z,95.63
2018-06-21T07:13:33.031Z,78.75
2018-06-21T07:14:33.023Z,84.38
2018-06-21T07:15:33.002Z,95.63
2018-06-21T07:16:33.291Z,101.25
2018-06-21T07:17:32.971Z,95.63
2018-06-21T07:18:32.957Z,112.50
2018-06-21T07:19:32.950Z,135.00
2018-06-21T07:20:32.927Z,129.38
2018-06-21T07:21:32.921Z,90.00
2018-06-21T07:22:33.203Z,101.25
2018-06-21T07:23:32.884Z,90.00
2018-06-21T07:24:32.897Z,67.50
2018-06-21T07:25:32.855Z,78.75
2018-06-21T07:26:32.844Z,101.25
2018-06-21T07:27:32.825Z,101.25
2018-06-21T07:29:33.094Z,95.63
2018-06-21T07:30:32.782Z,123.75
2018-06-21T07:31:32.769Z,151.88
2018-06-21T07:32:32.749Z,151.88
2018-06-21T07:33:32.775Z,163.13
2018-06-21T07:34:32.745Z,135.00
2018-06-21T07:35:33.759Z,151.88
2018-06-21T07:36:32.693Z,140.63
2018-06-21T07:37:32.675Z,157.50
2018-06-21T07:38:32.668Z,163.13
2018-06-21T07:39:33.036Z,163.13
2018-06-21T07:40:33.016Z,168.75
2018-06-21T07:41:32.920Z,174.38
2018-06-21T07:42:32.606Z,180.00
2018-06-21T07:43:32.593Z,180.00
2018-06-21T07:44:32.572Z,168.75
2018-06-21T07:46:32.559Z,151.88
2018-06-21T07:47:32.862Z,140.63
2018-06-21T07:48:32.528Z,157.50
2018-06-21T07:49:32.499Z,163.13
2018-06-21T07:50:32.484Z,174.38
2018-06-21T07:51:32.475Z,168.75
2018-06-21T07:52:32.458Z,168.75
2018-06-21T07:53:32.744Z,157.50
2018-06-21T07:54:32.425Z,140.63
2018-06-21T07:55:32.414Z,129.38
2018-06-21T07:56:32.402Z,129.38
2018-06-21T07:57:32.841Z,140.63
2018-06-21T07:58:32.795Z,174.38
2018-06-21T07:59:32.368Z,180.00
2018-06-21T08:00:32.662Z,157.50
2018-06-21T08:01:32.325Z,146.25
2018-06-21T08:02:32.314Z,135.00
2018-06-21T08:03:32.292Z,140.63
2018-06-21T08:04:32.278Z,168.75
2018-06-21T08:05:32.262Z,219.38
2018-06-21T08:06:32.621Z,281.25
2018-06-21T08:07:32.230Z,393.75
2018-06-21T08:08:32.224Z,337.50
2018-06-21T08:09:32.212Z,253.13
2018-06-21T08:10:32.194Z,236.25
2018-06-21T08:11:32.234Z,219.38
2018-06-21T08:12:32.460Z,225.00
2018-06-21T08:13:32.200Z,208.13
2018-06-21T08:14:32.138Z,163.13
2018-06-21T08:15:32.184Z,185.63
2018-06-21T08:16:32.111Z,140.63
2018-06-21T08:17:32.082Z,123.75
2018-06-21T08:19:32.356Z,163.13
2018-06-21T08:20:32.051Z,174.38
2018-06-21T08:21:32.051Z,168.75
2018-06-21T08:22:32.016Z,168.75
2018-06-21T08:23:32.051Z,185.63
2018-06-21T08:24:31.988Z,163.13
2018-06-21T08:25:32.272Z,135.00
2018-06-21T08:27:32.172Z,118.13
2018-06-21T08:28:31.926Z,140.63
2018-06-21T08:29:31.909Z,208.13
2018-06-21T08:30:31.894Z,253.13
2018-06-21T08:31:32.180Z,258.75
2018-06-21T08:32:31.867Z,151.88
2018-06-21T08:33:31.852Z,106.88
2018-06-21T08:34:31.840Z,101.25
2018-06-21T08:36:31.858Z,191.25
2018-06-21T08:37:32.095Z,163.13
2018-06-21T08:38:31.779Z,140.63
2018-06-21T08:39:31.769Z,140.63
2018-06-21T08:40:31.744Z,213.75
2018-06-21T08:41:31.745Z,180.00
2018-06-21T08:42:31.771Z,146.25
2018-06-21T08:43:32.015Z,135.00
2018-06-21T08:44:31.694Z,180.00
2018-06-21T08:45:31.670Z,219.38
2018-06-21T08:46:31.661Z,236.25
2018-06-21T08:47:31.643Z,230.63
2018-06-21T08:48:31.688Z,247.50
2018-06-21T08:49:31.928Z,225.00
2018-06-21T08:50:31.613Z,236.25
2018-06-21T08:51:31.590Z,264.38
2018-06-21T08:52:31.579Z,213.75
2018-06-21T08:53:31.827Z,168.75
2018-06-21T08:54:31.753Z,191.25
2018-06-21T08:55:31.576Z,185.63
2018-06-21T08:57:31.909Z,185.63
2018-06-21T08:58:31.476Z,185.63
2018-06-21T08:59:31.461Z,196.88
2018-06-21T09:00:31.467Z,185.63
2018-06-21T09:01:31.431Z,196.88
2018-06-21T09:02:31.430Z,185.63
2018-06-21T09:03:31.703Z,191.25
2018-06-21T09:04:31.476Z,196.88
2018-06-21T09:05:31.368Z,191.25
2018-06-21T09:06:31.616Z,191.25
2018-06-21T09:07:31.343Z,191.25
2018-06-21T09:08:31.332Z,185.63
2018-06-21T09:09:31.623Z,185.63
2018-06-21T09:10:31.302Z,185.63
2018-06-21T09:11:31.282Z,196.88
2018-06-21T09:12:31.269Z,191.25
2018-06-21T09:13:31.264Z,185.63
2018-06-21T09:14:31.234Z,163.13
2018-06-21T09:15:31.537Z,180.00
2018-06-21T09:16:31.211Z,163.13
2018-06-21T09:17:31.305Z,174.38
2018-06-21T09:18:31.235Z,208.13
2018-06-21T09:19:31.170Z,241.88
2018-06-21T09:20:31.146Z,253.13
2018-06-21T09:21:31.434Z,236.25
2018-06-21T09:22:31.140Z,236.25
2018-06-21T09:23:31.100Z,225.00
2018-06-21T09:24:31.089Z,253.13
2018-06-21T09:25:31.071Z,275.63
2018-06-21T09:26:31.055Z,315.00
2018-06-21T09:27:31.342Z,326.25
2018-06-21T09:28:31.037Z,309.38
2018-06-21T09:29:31.021Z,360.00
2018-06-21T09:31:30.986Z,438.75
2018-06-21T09:32:30.963Z,495.00
2018-06-21T09:33:31.254Z,517.50
2018-06-21T09:34:30.938Z,607.50
2018-06-21T09:36:30.912Z,714.38
2018-06-21T09:37:30.984Z,815.63
2018-06-21T09:38:30.883Z,911.25
2018-06-21T09:39:31.167Z,877.50
2018-06-21T09:40:30.850Z,894.38
2018-06-21T09:41:30.881Z,894.38
2018-06-21T09:42:30.825Z,1018.13
2018-06-21T09:43:30.808Z,1080.00
2018-06-21T09:44:30.796Z,1181.25
2018-06-21T09:45:31.082Z,1113.75
2018-06-21T09:46:34.366Z,1170.00
2018-06-21T09:47:30.760Z,1147.50
2018-06-21T09:48:30.756Z,1209.38
2018-06-21T09:49:30.737Z,1170.00
2018-06-21T09:50:30.820Z,1361.25
2018-06-21T09:51:31.004Z,1406.25
2018-06-21T09:52:30.755Z,1260.00
2018-06-21T09:53:30.680Z,1243.13
2018-06-21T09:54:30.678Z,939.38
2018-06-21T09:55:30.656Z,1108.13
2018-06-21T09:57:30.962Z,1147.50
2018-06-21T09:58:30.674Z,1119.38
2018-06-21T09:59:30.609Z,973.13
2018-06-21T10:00:30.595Z,860.63
2018-06-21T10:01:30.651Z,1102.50
2018-06-21T10:02:30.575Z,1046.25
2018-06-21T10:03:30.864Z,905.63
2018-06-21T10:04:30.554Z,1321.88
2018-06-21T10:05:30.539Z,1018.13
2018-06-21T10:06:30.534Z,1108.13
2018-06-21T10:07:30.573Z,703.13
2018-06-21T10:08:30.511Z,405.00
2018-06-21T10:09:30.795Z,309.38
2018-06-21T10:10:30.485Z,416.25
2018-06-21T10:11:30.483Z,371.25
2018-06-21T10:12:30.465Z,573.75
2018-06-21T10:13:31.018Z,601.88
2018-06-21T10:16:30.716Z,748.13
2018-06-21T10:17:30.464Z,517.50
2018-06-21T10:18:30.391Z,371.25
2018-06-21T10:19:30.382Z,427.50
2018-06-21T10:20:30.370Z,1535.63
2018-06-21T10:21:30.361Z,990.00
2018-06-21T10:22:30.654Z,1631.25
2018-06-21T10:23:30.332Z,1575.00
2018-06-21T10:24:30.333Z,1445.63
2018-06-21T10:25:30.403Z,1153.13
2018-06-21T10:26:30.299Z,1074.38
2018-06-21T10:27:30.292Z,883.13
2018-06-21T10:28:30.273Z,832.50
2018-06-21T10:29:30.567Z,511.88
2018-06-21T10:30:30.248Z,472.50
2018-06-21T10:31:30.246Z,270.00
2018-06-21T10:32:30.227Z,337.50
2018-06-21T10:33:30.252Z,286.88
2018-06-21T10:34:30.217Z,168.75
2018-06-21T10:35:30.492Z,174.38
2018-06-21T10:36:30.179Z,247.50
2018-06-21T10:37:30.166Z,399.38
2018-06-21T10:38:30.153Z,410.63
2018-06-21T10:39:30.505Z,371.25
2018-06-21T10:40:30.135Z,326.25
2018-06-21T10:43:30.105Z,450.00
2018-06-21T10:44:30.085Z,478.13
2018-06-21T10:45:30.072Z,500.63
2018-06-21T10:46:30.085Z,523.13
2018-06-21T10:47:30.348Z,545.63
2018-06-21T10:48:30.029Z,573.75
2018-06-21T10:49:30.120Z,613.13
2018-06-21T10:50:30.015Z,545.63
2018-06-21T10:51:29.997Z,669.38
2018-06-21T10:52:29.983Z,652.50
2018-06-21T10:53:29.976Z,568.13
2018-06-21T10:54:30.257Z,472.50
2018-06-21T10:55:29.995Z,309.38
2018-06-21T10:56:29.935Z,382.50
2018-06-21T10:57:29.922Z,551.25
2018-06-21T10:58:29.909Z,393.75
2018-06-21T10:59:29.889Z,376.88
2018-06-21T11:00:30.800Z,472.50
2018-06-21T11:01:29.866Z,855.00
2018-06-21T11:02:29.866Z,956.25
2018-06-21T11:03:29.938Z,866.25
2018-06-21T11:04:30.109Z,1141.88
2018-06-21T11:05:30.042Z,2638.13
2018-06-21T11:06:30.272Z,4280.63
2018-06-21T11:07:29.991Z,4550.63
2018-06-21T11:08:29.974Z,4173.75
2018-06-21T11:09:30.158Z,3515.63
2018-06-21T11:10:29.762Z,3127.50
2018-06-21T11:11:29.770Z,4072.50
2018-06-21T11:12:29.734Z,928.13
2018-06-21T11:13:30.045Z,810.00
2018-06-21T11:14:29.720Z,551.25
2018-06-21T11:15:29.705Z,146.25
2018-06-21T11:16:29.696Z,67.50
2018-06-21T11:17:29.686Z,73.13
2018-06-21T11:18:29.728Z,90.00
2018-06-21T11:19:29.974Z,118.13
2018-06-21T11:21:29.909Z,112.50
2018-06-21T11:22:29.636Z,146.25
2018-06-21T11:23:29.625Z,168.75
2018-06-21T11:24:29.618Z,196.88
2018-06-21T11:25:29.601Z,213.75
2018-06-21T11:26:29.885Z,225.00
2018-06-21T11:27:29.592Z,241.88
2018-06-21T11:29:29.562Z,264.38
2018-06-21T11:30:29.531Z,258.75
2018-06-21T11:31:29.516Z,253.13
2018-06-21T11:32:29.856Z,241.88
2018-06-21T11:33:29.498Z,258.75
2018-06-21T11:34:29.478Z,253.13
2018-06-21T11:35:29.460Z,270.00
2018-06-21T11:36:29.445Z,275.63
2018-06-21T11:37:29.524Z,275.63
2018-06-21T11:38:29.899Z,292.50
2018-06-21T11:39:29.430Z,264.38
2018-06-21T11:40:29.391Z,225.00
2018-06-21T11:41:29.379Z,185.63
2018-06-21T11:42:29.372Z,191.25
2018-06-21T11:43:29.413Z,230.63
2018-06-21T11:44:29.630Z,253.13
2018-06-21T11:45:29.314Z,241.88
2018-06-21T11:46:29.292Z,236.25
2018-06-21T11:47:29.278Z,225.00
2018-06-21T11:48:29.282Z,247.50
2018-06-21T11:49:29.309Z,253.13
2018-06-21T11:50:29.238Z,258.75
2018-06-21T11:51:29.253Z,303.75
2018-06-21T11:52:29.248Z,309.38
2018-06-21T11:53:29.194Z,315.00
2018-06-21T11:54:29.208Z,382.50
2018-06-21T11:55:29.511Z,444.38
2018-06-21T11:56:29.135Z,545.63
2018-06-21T11:57:29.127Z,624.38
2018-06-21T11:58:29.165Z,686.25
2018-06-21T11:59:29.086Z,686.25
2018-06-21T12:00:29.080Z,703.13
2018-06-21T12:01:29.067Z,646.88
2018-06-21T12:02:29.077Z,635.63
2018-06-21T12:03:29.173Z,556.88
2018-06-21T12:04:29.017Z,500.63
2018-06-21T12:05:29.054Z,483.75
2018-06-21T12:06:29.282Z,500.63
2018-06-21T12:07:28.972Z,523.13
2018-06-21T12:09:28.982Z,995.63
2018-06-21T12:10:28.928Z,478.13
2018-06-21T12:11:28.911Z,483.75
2018-06-21T12:12:29.193Z,376.88
2018-06-21T12:13:28.899Z,315.00
2018-06-21T12:14:28.874Z,286.88
2018-06-21T12:15:28.860Z,219.38
2018-06-21T12:16:28.845Z,135.00
2018-06-21T12:17:28.823Z,129.38
2018-06-21T12:18:29.257Z,123.75
2018-06-21T12:19:28.802Z,157.50
2018-06-21T12:20:28.805Z,196.88
2018-06-21T12:21:28.830Z,286.88
2018-06-21T12:22:28.786Z,191.25
2018-06-21T12:23:28.751Z,225.00
2018-06-21T12:24:29.032Z,180.00
2018-06-21T12:25:28.711Z,163.13
2018-06-21T12:26:28.820Z,180.00
2018-06-21T12:27:28.716Z,174.38
2018-06-21T12:28:28.667Z,185.63
2018-06-21T12:29:28.646Z,247.50
2018-06-21T12:30:28.635Z,315.00
2018-06-21T12:31:29.028Z,298.13
2018-06-21T12:32:28.609Z,236.25
2018-06-21T12:33:28.589Z,213.75
2018-06-21T12:34:28.585Z,208.13
2018-06-21T12:35:28.573Z,208.13
2018-06-21T12:36:28.545Z,241.88
2018-06-21T12:37:28.577Z,270.00
2018-06-21T12:38:28.812Z,337.50
2018-06-21T12:39:28.495Z,393.75
2018-06-21T12:40:28.483Z,483.75
2018-06-21T12:41:28.465Z,826.88
2018-06-21T12:42:28.505Z,1057.50
2018-06-21T12:43:28.437Z,860.63
2018-06-21T12:44:28.719Z,680.63
2018-06-21T12:46:28.390Z,961.88
2018-06-21T12:47:28.387Z,770.63
2018-06-21T12:48:28.382Z,765.00
2018-06-21T12:49:28.420Z,1141.88
2018-06-21T12:50:28.655Z,1231.88
2018-06-21T12:51:28.354Z,1445.63
2018-06-21T12:52:28.317Z,2047.50
2018-06-21T12:53:28.302Z,3037.50
2018-06-21T12:54:28.281Z,3380.63
2018-06-21T12:55:28.273Z,3206.25
2018-06-21T12:56:28.556Z,3071.25
2018-06-21T12:57:28.251Z,2902.50
2018-06-21T12:58:28.232Z,3054.38
2018-06-21T12:59:28.231Z,2115.00
2018-06-21T13:00:28.254Z,2829.38
2018-06-21T13:01:28.249Z,2812.50
2018-06-21T13:02:28.186Z,2829.38
2018-06-21T13:03:28.502Z,2851.88
2018-06-21T13:04:28.237Z,2925.00
2018-06-21T13:05:28.195Z,2902.50
2018-06-21T13:06:28.160Z,2919.38
2018-06-21T13:07:28.140Z,2902.50
2018-06-21T13:08:28.129Z,781.88
2018-06-21T13:09:28.124Z,2722.50
2018-06-21T13:10:28.427Z,1074.38
2018-06-21T13:11:28.129Z,2801.25
2018-06-21T13:12:28.095Z,1738.13
2018-06-21T13:13:28.132Z,2576.25
2018-06-21T13:14:28.188Z,450.00
2018-06-21T13:15:28.126Z,928.13
2018-06-21T13:16:28.359Z,1096.88
2018-06-21T13:17:28.066Z,1541.25
2018-06-21T13:18:28.073Z,1625.63